Time;durP1;ratioP1;P1;durP2;ratioP2;P2;SDS_P1;SDS_P2;PMS_P1;PMS_P2;Temp;Humidity;BMP_temperature;BMP_pressure;BME280_temperature;BME280_humidity;BME280_pressure;Samples;Min_cycle;Max_cycle;Signal;HPM_P1;HPM_P2
2022/05/09 00:01:47;;;;;;;;;;;7.80;99.90;;;;;;5058919;28;19955;-70
2022/05/09 00:04:19;;;;;;;;;;;7.90;99.90;;;;;;5059710;28;19952;-71
2022/05/09 00:06:45;;;;;;;;;;;7.70;99.90;;;;;;5070758;28;19924;-71
2022/05/09 00:09:11;;;;;;;;;;;7.70;99.90;;;;;;5070362;28;21568;-71
2022/05/09 00:11:36;;;;;;;;;;;7.70;99.90;;;;;;5071726;28;20300;-72
2022/05/09 00:14:02;;;;;;;;;;;7.60;99.90;;;;;;5067781;28;19935;-72
2022/05/09 00:16:33;;;;;;;;;;;7.60;99.90;;;;;;5066050;28;20460;-72
2022/05/09 00:18:59;;;;;;;;;;;7.50;99.90;;;;;;5055080;28;19944;-72
2022/05/09 00:21:25;;;;;;;;;;;7.50;99.90;;;;;;5064631;28;20282;-72
2022/05/09 00:23:51;;;;;;;;;;;7.50;99.90;;;;;;5071687;28;19913;-72
2022/05/09 00:26:17;;;;;;;;;;;7.50;99.90;;;;;;5065111;28;20007;-72
2022/05/09 00:28:42;;;;;;;;;;;7.50;99.90;;;;;;5066961;28;20003;-71
2022/05/09 00:31:08;;;;;;;;;;;7.50;99.90;;;;;;5071893;28;20371;-72
2022/05/09 00:33:34;;;;;;;;;;;7.50;99.90;;;;;;5068229;28;19923;-71
2022/05/09 00:36:00;;;;;;;;;;;7.40;99.90;;;;;;5070852;28;19956;-71
2022/05/09 00:38:26;;;;;;;;;;;7.40;99.90;;;;;;5072441;28;19947;-71
2022/05/09 00:43:37;;;;;;;;;;;7.40;99.90;;;;;;5074731;28;20227;-71
2022/05/09 00:46:02;;;;;;;;;;;7.40;99.90;;;;;;5070615;28;19924;-71
2022/05/09 00:48:29;;;;;;;;;;;7.30;99.90;;;;;;5072715;28;20307;-72
2022/05/09 00:50:55;;;;;;;;;;;7.30;99.90;;;;;;5072122;28;19962;-71
2022/05/09 00:53:20;;;;;;;;;;;7.30;99.90;;;;;;5058371;28;19917;-71
2022/05/09 00:55:49;;;;;;;;;;;7.20;99.90;;;;;;5059436;28;20201;-72
2022/05/09 00:58:14;;;;;;;;;;;7.30;99.90;;;;;;5063473;28;19912;-72
2022/05/09 01:00:42;;;;;;;;;;;7.20;99.90;;;;;;5064122;28;19912;-72
2022/05/09 01:03:12;;;;;;;;;;;7.20;99.90;;;;;;5071397;28;19943;-72
2022/05/09 01:05:38;;;;;;;;;;;7.20;99.90;;;;;;5069950;28;19916;-72
2022/05/09 01:08:03;;;;;;;;;;;7.00;99.90;;;;;;5069427;28;19912;-72
2022/05/09 01:10:31;;;;;;;;;;;6.60;99.90;;;;;;5074400;28;19919;-71
2022/05/09 01:12:59;;;;;;;;;;;6.40;99.90;;;;;;5064254;28;19925;-71
2022/05/09 01:15:26;;;;;;;;;;;6.30;99.90;;;;;;5073177;28;19913;-72
2022/05/09 01:17:51;;;;;;;;;;;6.30;99.90;;;;;;5068640;28;19966;-72
2022/05/09 01:20:17;;;;;;;;;;;6.20;99.90;;;;;;5061386;28;19917;-71
2022/05/09 01:22:43;;;;;;;;;;;6.20;99.90;;;;;;5076179;28;19977;-71
2022/05/09 01:25:12;;;;;;;;;;;6.20;99.90;;;;;;5066602;28;19927;-72
2022/05/09 01:27:40;;;;;;;;;;;6.20;99.90;;;;;;5062409;28;19920;-72
2022/05/09 01:30:06;;;;;;;;;;;6.10;99.90;;;;;;5068043;28;20223;-72
2022/05/09 01:32:36;;;;;;;;;;;6.20;99.90;;;;;;5058969;28;19917;-71
2022/05/09 01:35:07;;;;;;;;;;;6.10;99.90;;;;;;5060611;28;19919;-71
2022/05/09 01:37:33;;;;;;;;;;;6.10;99.90;;;;;;5070483;28;19924;-72
2022/05/09 01:39:58;;;;;;;;;;;6.00;99.90;;;;;;5067434;28;19920;-72
2022/05/09 01:42:25;;;;;;;;;;;5.90;99.90;;;;;;5070173;28;20212;-72
2022/05/09 01:44:51;;;;;;;;;;;5.90;99.90;;;;;;5072821;28;19927;-72
2022/05/09 01:50:00;;;;;;;;;;;6.00;99.90;;;;;;5077406;28;19919;-72
2022/05/09 01:52:26;;;;;;;;;;;6.00;99.90;;;;;;5067680;28;20011;-72
2022/05/09 01:54:52;;;;;;;;;;;6.00;99.90;;;;;;5071224;28;19923;-72
2022/05/09 01:57:18;;;;;;;;;;;5.90;99.90;;;;;;5057713;28;19913;-72
2022/05/09 01:59:43;;;;;;;;;;;6.00;99.90;;;;;;5056999;28;19970;-72
2022/05/09 02:02:11;;;;;;;;;;;6.00;99.90;;;;;;5067622;28;19964;-72
2022/05/09 02:04:40;;;;;;;;;;;5.90;99.90;;;;;;5068016;28;19938;-72
2022/05/09 02:07:09;;;;;;;;;;;5.80;99.90;;;;;;5064288;28;19912;-72
2022/05/09 02:09:45;;;;;;;;;;;5.70;99.90;;;;;;5057763;28;19913;-72
2022/05/09 02:12:11;;;;;;;;;;;5.60;99.90;;;;;;5062816;28;19956;-72
2022/05/09 02:14:37;;;;;;;;;;;5.60;99.90;;;;;;5072867;28;20024;-72
2022/05/09 02:17:04;;;;;;;;;;;5.50;99.90;;;;;;5065001;28;20326;-72
2022/05/09 02:19:29;;;;;;;;;;;5.50;99.90;;;;;;5057463;28;19913;-72
2022/05/09 02:21:55;;;;;;;;;;;5.50;99.90;;;;;;5069392;28;20192;-72
2022/05/09 02:24:22;;;;;;;;;;;5.50;99.90;;;;;;5074709;28;19920;-72
2022/05/09 02:26:48;;;;;;;;;;;5.40;99.90;;;;;;5062958;28;20272;-71
2022/05/09 02:29:14;;;;;;;;;;;5.40;99.90;;;;;;5061217;28;20303;-71
2022/05/09 02:31:39;;;;;;;;;;;5.30;99.90;;;;;;5072447;28;19913;-72
2022/05/09 02:34:05;;;;;;;;;;;5.40;99.90;;;;;;5066325;28;19916;-71
2022/05/09 02:36:31;;;;;;;;;;;5.40;99.90;;;;;;5057603;28;19916;-72
2022/05/09 02:38:56;;;;;;;;;;;5.40;99.90;;;;;;5068821;28;20366;-72
2022/05/09 02:41:22;;;;;;;;;;;5.40;99.90;;;;;;5076117;28;20015;-72
2022/05/09 02:43:48;;;;;;;;;;;5.50;99.90;;;;;;5074684;28;20039;-72
2022/05/09 02:46:13;;;;;;;;;;;5.40;99.90;;;;;;5068043;28;19912;-72
2022/05/09 02:48:39;;;;;;;;;;;5.40;99.90;;;;;;5058622;28;19913;-71
2022/05/09 02:51:05;;;;;;;;;;;5.40;99.90;;;;;;5060456;28;19948;-72
2022/05/09 02:53:31;;;;;;;;;;;5.40;99.90;;;;;;5065875;28;19955;-72
2022/05/09 02:55:56;;;;;;;;;;;5.40;99.90;;;;;;5068750;28;19976;-72
2022/05/09 02:58:22;;;;;;;;;;;5.50;99.90;;;;;;5067795;28;20320;-72
2022/05/09 03:00:48;;;;;;;;;;;5.50;99.90;;;;;;5064434;28;19913;-72
2022/05/09 03:05:58;;;;;;;;;;;5.80;99.90;;;;;;5068917;28;19926;-72
2022/05/09 03:08:24;;;;;;;;;;;5.90;99.90;;;;;;5075108;28;20218;-72
2022/05/09 03:10:50;;;;;;;;;;;6.00;99.90;;;;;;5075477;28;19919;-72
2022/05/09 03:13:16;;;;;;;;;;;6.00;99.90;;;;;;5069896;28;19924;-72
2022/05/09 03:15:43;;;;;;;;;;;6.00;99.90;;;;;;5086151;28;20361;-72
2022/05/09 03:18:10;;;;;;;;;;;6.00;99.90;;;;;;5058185;28;19912;-72
2022/05/09 03:20:36;;;;;;;;;;;6.00;99.90;;;;;;5074401;28;20057;-72
2022/05/09 03:23:04;;;;;;;;;;;6.00;99.90;;;;;;5057879;28;20339;-72
2022/05/09 03:25:30;;;;;;;;;;;6.20;99.90;;;;;;5070043;28;20009;-72
2022/05/09 03:27:56;;;;;;;;;;;6.20;99.90;;;;;;5074299;28;19979;-72
2022/05/09 03:30:22;;;;;;;;;;;6.20;99.90;;;;;;5066428;28;19999;-72
2022/05/09 03:32:47;;;;;;;;;;;6.30;99.90;;;;;;5063783;28;20315;-72
2022/05/09 03:35:14;;;;;;;;;;;6.10;99.90;;;;;;5061485;28;19946;-72
2022/05/09 03:37:40;;;;;;;;;;;6.10;99.90;;;;;;5059527;28;19913;-72
2022/05/09 03:40:06;;;;;;;;;;;6.10;99.90;;;;;;5087135;28;19917;-72
2022/05/09 03:42:32;;;;;;;;;;;6.10;99.90;;;;;;5063135;28;19921;-72
2022/05/09 03:44:58;;;;;;;;;;;6.10;99.90;;;;;;5056162;28;19921;-72
2022/05/09 03:47:23;;;;;;;;;;;6.10;99.90;;;;;;5072432;28;19916;-72
2022/05/09 03:49:50;;;;;;;;;;;6.10;99.90;;;;;;5064482;28;19987;-73
2022/05/09 03:52:16;;;;;;;;;;;6.10;99.90;;;;;;5056006;28;19920;-72
2022/05/09 03:54:42;;;;;;;;;;;6.10;99.90;;;;;;5071079;28;20476;-73
2022/05/09 03:57:07;;;;;;;;;;;6.10;99.90;;;;;;5070779;28;19917;-72
2022/05/09 03:59:33;;;;;;;;;;;6.10;99.90;;;;;;5056051;28;19912;-72
2022/05/09 04:01:58;;;;;;;;;;;6.10;99.90;;;;;;5055683;28;19966;-72
2022/05/09 04:04:24;;;;;;;;;;;6.10;99.90;;;;;;5054997;28;19923;-72
2022/05/09 04:06:51;;;;;;;;;;;6.10;99.90;;;;;;5055621;28;20354;-73
2022/05/09 04:09:20;;;;;;;;;;;6.10;99.90;;;;;;5065445;28;20281;-72
2022/05/09 04:11:47;;;;;;;;;;;6.10;99.90;;;;;;5055332;28;19920;-72
2022/05/09 04:14:13;;;;;;;;;;;6.20;99.90;;;;;;5070670;28;19928;-72
2022/05/09 04:16:50;;;;;;;;;;;6.20;99.90;;;;;;5049833;28;19913;-72
2022/05/09 04:19:20;;;;;;;;;;;6.20;99.90;;;;;;5071639;28;19930;-72
2022/05/09 04:21:46;;;;;;;;;;;6.30;99.90;;;;;;5073409;28;19938;-72
2022/05/09 04:24:12;;;;;;;;;;;6.30;99.90;;;;;;5070579;28;19931;-72
2022/05/09 04:26:37;;;;;;;;;;;6.30;99.90;;;;;;5069840;28;19920;-72
2022/05/09 04:29:03;;;;;;;;;;;6.30;99.90;;;;;;5071063;28;19916;-72
2022/05/09 04:31:30;;;;;;;;;;;6.40;99.90;;;;;;5071664;28;19967;-72
2022/05/09 04:33:57;;;;;;;;;;;6.50;99.90;;;;;;5070864;28;19916;-72
2022/05/09 04:36:23;;;;;;;;;;;6.50;99.90;;;;;;5068681;28;19925;-72
2022/05/09 04:38:51;;;;;;;;;;;6.50;99.90;;;;;;5068690;28;20188;-72
2022/05/09 04:41:19;;;;;;;;;;;6.50;99.90;;;;;;5069471;28;19916;-72
2022/05/09 04:43:45;;;;;;;;;;;6.60;99.90;;;;;;5069665;28;19913;-72
2022/05/09 04:46:11;;;;;;;;;;;6.70;99.90;;;;;;5076479;28;19920;-72
2022/05/09 04:48:40;;;;;;;;;;;6.70;99.90;;;;;;5075192;28;20235;-72
2022/05/09 04:51:06;;;;;;;;;;;6.70;99.90;;;;;;5074877;28;19974;-72
2022/05/09 04:53:32;;;;;;;;;;;6.80;99.90;;;;;;5074830;28;19963;-72
2022/05/09 04:55:58;;;;;;;;;;;6.90;99.90;;;;;;5074896;28;19916;-72
2022/05/09 04:58:24;;;;;;;;;;;7.00;99.90;;;;;;5072097;28;20054;-72
2022/05/09 05:00:49;;;;;;;;;;;7.10;99.90;;;;;;5074409;28;20003;-72
2022/05/09 05:03:15;;;;;;;;;;;7.20;99.90;;;;;;5075745;28;20311;-72
2022/05/09 05:05:41;;;;;;;;;;;7.20;99.90;;;;;;5074445;28;21237;-72
2022/05/09 05:08:07;;;;;;;;;;;7.30;99.90;;;;;;5073423;28;20015;-72
2022/05/09 05:10:32;;;;;;;;;;;7.30;99.90;;;;;;5071409;28;20600;-72
2022/05/09 05:12:59;;;;;;;;;;;7.40;99.90;;;;;;5072552;28;19925;-72
2022/05/09 05:15:28;;;;;;;;;;;7.50;99.90;;;;;;5069972;28;20019;-72
2022/05/09 05:17:54;;;;;;;;;;;7.50;99.90;;;;;;5058659;28;19952;-72
2022/05/09 05:20:20;;;;;;;;;;;7.60;99.90;;;;;;5069311;28;19918;-72
2022/05/09 05:22:49;;;;;;;;;;;7.60;99.90;;;;;;5075522;28;20226;-71
2022/05/09 05:25:19;;;;;;;;;;;7.70;99.90;;;;;;5073655;28;19913;-72
2022/05/09 05:27:46;;;;;;;;;;;7.80;99.90;;;;;;5074302;28;19921;-72
2022/05/09 05:30:12;;;;;;;;;;;7.90;99.90;;;;;;5075003;28;20215;-71
2022/05/09 05:32:39;;;;;;;;;;;8.00;99.90;;;;;;5070847;28;19917;-72
2022/05/09 05:35:06;;;;;;;;;;;8.10;99.90;;;;;;5074533;28;20007;-71
2022/05/09 05:37:33;;;;;;;;;;;8.10;99.90;;;;;;5075827;28;19948;-72
2022/05/09 05:40:00;;;;;;;;;;;8.20;99.90;;;;;;5072947;28;19921;-71
2022/05/09 05:42:26;;;;;;;;;;;8.30;99.90;;;;;;5072788;28;19930;-72
2022/05/09 05:44:52;;;;;;;;;;;8.40;99.90;;;;;;5074815;28;19916;-72
2022/05/09 05:47:19;;;;;;;;;;;8.50;99.90;;;;;;5073045;28;20300;-72
2022/05/09 05:49:44;;;;;;;;;;;8.60;99.90;;;;;;5075365;28;20003;-72
2022/05/09 05:52:11;;;;;;;;;;;8.70;99.90;;;;;;5073499;28;20278;-72
2022/05/09 05:54:39;;;;;;;;;;;8.80;99.90;;;;;;5075176;28;20288;-72
2022/05/09 05:57:05;;;;;;;;;;;8.90;99.90;;;;;;5068431;28;20351;-72
2022/05/09 05:59:31;;;;;;;;;;;9.00;99.90;;;;;;5074574;28;20322;-71
2022/05/09 06:01:56;;;;;;;;;;;9.10;99.90;;;;;;5075672;28;19913;-72
2022/05/09 06:04:22;;;;;;;;;;;9.20;99.90;;;;;;5072113;28;19966;-71
2022/05/09 06:06:48;;;;;;;;;;;9.30;99.90;;;;;;5088767;28;19962;-71
2022/05/09 06:09:14;;;;;;;;;;;9.50;99.90;;;;;;5073611;28;19921;-71
2022/05/09 06:11:41;;;;;;;;;;;9.60;99.90;;;;;;5067895;28;19919;-71
2022/05/09 06:14:07;;;;;;;;;;;9.70;99.90;;;;;;5069315;28;19920;-72
2022/05/09 06:16:34;;;;;;;;;;;9.90;99.90;;;;;;5076696;28;21841;-72
2022/05/09 06:19:00;;;;;;;;;;;10.00;99.90;;;;;;5069621;28;20327;-72
2022/05/09 06:21:26;;;;;;;;;;;10.10;99.90;;;;;;5073542;28;19913;-72
2022/05/09 06:23:52;;;;;;;;;;;10.20;99.90;;;;;;5062581;28;19964;-72
2022/05/09 06:26:18;;;;;;;;;;;10.30;99.90;;;;;;5071919;28;19985;-72
2022/05/09 06:28:43;;;;;;;;;;;10.40;99.90;;;;;;5072941;28;19928;-72
2022/05/09 06:31:09;;;;;;;;;;;10.50;99.90;;;;;;5072198;28;19926;-72
2022/05/09 06:33:34;;;;;;;;;;;10.60;99.90;;;;;;5073705;28;19924;-71
2022/05/09 06:36:03;;;;;;;;;;;10.70;99.90;;;;;;5072283;28;20302;-71
2022/05/09 06:38:30;;;;;;;;;;;10.80;99.90;;;;;;5073245;28;19999;-71
2022/05/09 06:40:55;;;;;;;;;;;10.90;99.90;;;;;;5072565;28;19912;-72
2022/05/09 06:43:24;;;;;;;;;;;11.00;99.90;;;;;;5071887;28;20041;-71
2022/05/09 06:45:50;;;;;;;;;;;11.10;99.90;;;;;;5074223;28;19912;-72
2022/05/09 06:48:16;;;;;;;;;;;11.20;99.90;;;;;;5071466;28;20011;-72
2022/05/09 06:50:42;;;;;;;;;;;11.30;99.90;;;;;;5071342;28;20003;-71
2022/05/09 06:53:08;;;;;;;;;;;11.30;99.90;;;;;;5072334;28;20333;-72
2022/05/09 06:55:35;;;;;;;;;;;11.40;99.90;;;;;;5071923;28;20315;-71
2022/05/09 06:58:04;;;;;;;;;;;11.50;99.90;;;;;;5071660;28;20147;-71
2022/05/09 07:00:30;;;;;;;;;;;11.50;99.90;;;;;;5067237;28;19991;-71
2022/05/09 07:02:55;;;;;;;;;;;11.60;99.90;;;;;;5070366;28;19920;-72
2022/05/09 07:05:21;;;;;;;;;;;11.70;99.90;;;;;;5072199;28;20230;-72
2022/05/09 07:07:48;;;;;;;;;;;11.90;99.90;;;;;;5068739;28;20003;-72
2022/05/09 07:10:14;;;;;;;;;;;12.00;99.90;;;;;;5072571;28;19943;-72
2022/05/09 07:12:41;;;;;;;;;;;12.10;99.90;;;;;;5069687;28;20218;-71
2022/05/09 07:15:06;;;;;;;;;;;12.20;99.90;;;;;;5067824;28;19956;-72
2022/05/09 07:17:32;;;;;;;;;;;12.30;99.90;;;;;;5073507;28;19966;-71
2022/05/09 07:19:57;;;;;;;;;;;12.50;99.90;;;;;;5073168;28;19962;-72
2022/05/09 07:22:23;;;;;;;;;;;12.60;99.90;;;;;;5068906;28;19924;-72
2022/05/09 07:24:49;;;;;;;;;;;12.80;99.90;;;;;;5060026;28;19998;-71
2022/05/09 07:27:15;;;;;;;;;;;13.00;99.90;;;;;;5062736;28;19913;-72
2022/05/09 07:29:41;;;;;;;;;;;13.40;99.90;;;;;;5067476;28;19917;-72
2022/05/09 07:32:07;;;;;;;;;;;13.90;99.90;;;;;;5070222;28;19974;-72
2022/05/09 07:34:33;;;;;;;;;;;14.50;99.90;;;;;;5070041;28;20302;-72
2022/05/09 07:36:59;;;;;;;;;;;14.80;99.90;;;;;;5069174;28;19916;-72
2022/05/09 07:39:24;;;;;;;;;;;15.30;99.90;;;;;;5062023;28;19920;-72
2022/05/09 07:41:50;;;;;;;;;;;15.90;99.90;;;;;;5068198;28;19920;-73
2022/05/09 07:44:16;;;;;;;;;;;16.10;99.90;;;;;;5074041;28;19939;-72
2022/05/09 07:46:41;;;;;;;;;;;16.50;99.90;;;;;;5066620;28;19924;-72
2022/05/09 07:49:07;;;;;;;;;;;16.80;99.90;;;;;;5069889;28;19916;-72
2022/05/09 07:51:37;;;;;;;;;;;17.00;99.90;;;;;;5069000;28;19921;-72
2022/05/09 07:54:03;;;;;;;;;;;17.40;99.90;;;;;;5066591;28;19928;-72
2022/05/09 07:56:29;;;;;;;;;;;17.60;99.90;;;;;;5066132;28;20019;-72
2022/05/09 07:58:54;;;;;;;;;;;17.60;99.90;;;;;;5070811;28;20267;-72
2022/05/09 08:01:20;;;;;;;;;;;18.00;99.90;;;;;;5070556;28;19925;-72
2022/05/09 08:03:45;;;;;;;;;;;18.40;99.90;;;;;;5069018;28;20184;-73
2022/05/09 08:06:11;;;;;;;;;;;18.50;98.20;;;;;;5062838;28;20534;-71
2022/05/09 08:08:38;;;;;;;;;;;18.50;98.10;;;;;;5063135;28;20220;-72
2022/05/09 08:11:04;;;;;;;;;;;18.50;98.70;;;;;;5062396;28;19920;-73
2022/05/09 08:13:33;;;;;;;;;;;18.30;97.40;;;;;;5053905;28;20320;-71
2022/05/09 08:15:59;;;;;;;;;;;18.10;99.90;;;;;;5060822;28;20217;-70
2022/05/09 08:18:25;;;;;;;;;;;18.10;98.40;;;;;;5059978;28;20014;-71
2022/05/09 08:20:53;;;;;;;;;;;18.40;98.90;;;;;;5062965;28;20369;-71
2022/05/09 08:23:19;;;;;;;;;;;18.50;99.60;;;;;;5069574;28;19952;-71
2022/05/09 08:25:46;;;;;;;;;;;18.40;97.50;;;;;;5068020;28;19951;-70
2022/05/09 08:28:11;;;;;;;;;;;18.30;98.00;;;;;;5058291;28;20379;-71
2022/05/09 08:30:38;;;;;;;;;;;18.40;98.10;;;;;;5064098;28;19971;-72
2022/05/09 08:33:07;;;;;;;;;;;18.60;97.20;;;;;;5072721;28;19920;-71
2022/05/09 08:35:33;;;;;;;;;;;19.00;99.00;;;;;;5067037;28;19916;-71
2022/05/09 08:37:59;;;;;;;;;;;19.50;97.90;;;;;;5067292;28;19918;-71
2022/05/09 08:40:35;;;;;;;;;;;20.10;95.70;;;;;;5072289;28;19912;-71
2022/05/09 08:43:30;;;;;;;;;;;20.50;95.50;;;;;;5064294;28;19912;-71
2022/05/09 08:46:15;;;;;;;;;;;21.10;93.90;;;;;;5057709;28;19917;-71
2022/05/09 08:48:52;;;;;;;;;;;21.30;94.70;;;;;;5067584;28;19912;-71
2022/05/09 08:51:27;;;;;;;;;;;21.10;92.30;;;;;;5073899;28;20206;-71
2022/05/09 08:53:56;;;;;;;;;;;21.00;94.40;;;;;;5068534;28;19916;-71
2022/05/09 08:56:23;;;;;;;;;;;21.10;92.30;;;;;;5057907;28;19991;-71
2022/05/09 08:58:56;;;;;;;;;;;21.50;91.40;;;;;;5072519;28;19912;-71
2022/05/09 09:01:24;;;;;;;;;;;21.40;92.90;;;;;;5069563;28;19952;-71
2022/05/09 09:03:58;;;;;;;;;;;21.70;92.90;;;;;;5070666;28;19913;-71
2022/05/09 09:06:52;;;;;;;;;;;21.60;91.80;;;;;;5068948;28;20007;-71
2022/05/09 09:09:38;;;;;;;;;;;21.70;92.50;;;;;;5053907;28;20000;-71
2022/05/09 09:12:13;;;;;;;;;;;21.80;92.50;;;;;;5058900;28;19924;-71
2022/05/09 09:14:38;;;;;;;;;;;21.50;92.00;;;;;;5063876;28;19912;-71
2022/05/09 09:17:24;;;;;;;;;;;21.60;92.80;;;;;;5068419;28;20235;-71
2022/05/09 09:19:50;;;;;;;;;;;21.90;92.00;;;;;;5070879;28;20218;-71
2022/05/09 09:22:25;;;;;;;;;;;21.90;90.80;;;;;;5073518;28;19962;-71
2022/05/09 09:25:10;;;;;;;;;;;21.90;88.50;;;;;;5076107;28;19957;-71
2022/05/09 09:27:41;;;;;;;;;;;22.10;90.00;;;;;;5075121;28;19916;-71
2022/05/09 09:30:11;;;;;;;;;;;22.20;91.70;;;;;;5058758;28;19917;-70
2022/05/09 09:32:42;;;;;;;;;;;22.70;90.60;;;;;;5058134;28;19925;-70
2022/05/09 09:35:20;;;;;;;;;;;22.40;86.80;;;;;;5057724;28;19928;-70
2022/05/09 09:37:53;;;;;;;;;;;22.20;86.20;;;;;;5057266;28;19921;-71
2022/05/09 09:40:19;;;;;;;;;;;22.50;90.30;;;;;;5072495;28;19912;-71
2022/05/09 09:42:44;;;;;;;;;;;23.10;87.10;;;;;;5069266;28;19919;-71
2022/05/09 09:45:30;;;;;;;;;;;23.10;86.60;;;;;;5078085;28;19919;-70
2022/05/09 09:48:16;;;;;;;;;;;23.00;87.30;;;;;;5078565;28;19916;-70
2022/05/09 09:51:00;;;;;;;;;;;23.50;84.80;;;;;;5058767;28;19971;-70
2022/05/09 09:53:57;;;;;;;;;;;23.50;87.70;;;;;;5061423;28;19917;-71
2022/05/09 09:56:22;;;;;;;;;;;23.90;85.80;;;;;;5073190;28;19924;-71
2022/05/09 09:58:49;;;;;;;;;;;24.40;76.30;;;;;;5077182;28;19913;-71
2022/05/09 10:01:23;;;;;;;;;;;24.20;77.30;;;;;;5077685;28;19935;-71
2022/05/09 10:04:03;;;;;;;;;;;23.50;85.90;;;;;;5066286;28;20312;-70
2022/05/09 10:06:30;;;;;;;;;;;23.40;83.80;;;;;;5069237;28;19916;-70
2022/05/09 10:08:59;;;;;;;;;;;23.80;80.70;;;;;;5057959;28;19913;-71
2022/05/09 10:11:28;;;;;;;;;;;24.20;84.70;;;;;;5074795;28;19916;-71
2022/05/09 10:13:58;;;;;;;;;;;24.40;85.00;;;;;;5057024;28;19970;-71
2022/05/09 10:16:24;;;;;;;;;;;24.50;84.60;;;;;;5072627;28;19954;-71
2022/05/09 10:18:52;;;;;;;;;;;24.30;83.60;;;;;;5063746;28;19919;-72
2022/05/09 10:24:47;;;;;;;;;;;24.70;83.30;;;;;;5062389;28;19956;-71
2022/05/09 10:26:58;;;;;;;;;;;24.70;82.10;;;;;;5060568;28;19923;-71
2022/05/09 10:29:24;;;;;;;;;;;24.80;82.50;;;;;;5062393;28;19917;-71
2022/05/09 10:31:53;;;;;;;;;;;25.20;78.60;;;;;;5066444;28;19917;-70
2022/05/09 10:34:27;;;;;;;;;;;25.20;78.40;;;;;;5076327;28;19916;-71
2022/05/09 10:37:00;;;;;;;;;;;25.20;73.90;;;;;;5073654;28;19947;-72
2022/05/09 10:39:33;;;;;;;;;;;24.60;74.90;;;;;;5068512;28;19940;-70
2022/05/09 10:42:00;;;;;;;;;;;24.20;78.70;;;;;;5075337;28;19921;-70
2022/05/09 10:44:44;;;;;;;;;;;24.10;76.70;;;;;;5072928;28;19912;-70
2022/05/09 10:47:15;;;;;;;;;;;23.70;78.00;;;;;;5073562;28;20011;-70
2022/05/09 10:49:44;;;;;;;;;;;23.70;79.00;;;;;;5073574;28;20241;-70
2022/05/09 10:52:33;;;;;;;;;;;24.00;82.90;;;;;;5072528;28;19935;-70
2022/05/09 10:55:17;;;;;;;;;;;24.40;79.70;;;;;;5066268;28;19920;-70
2022/05/09 10:57:49;;;;;;;;;;;24.70;80.40;;;;;;5073076;28;20376;-71
2022/05/09 11:00:20;;;;;;;;;;;24.70;81.00;;;;;;5067294;28;20007;-71
2022/05/09 11:03:04;;;;;;;;;;;24.80;82.70;;;;;;5071603;28;19912;-72
2022/05/09 11:05:35;;;;;;;;;;;25.10;76.00;;;;;;5069061;28;19912;-71
2022/05/09 11:08:08;;;;;;;;;;;24.80;75.40;;;;;;5073470;28;20246;-71
2022/05/09 11:10:37;;;;;;;;;;;24.30;80.40;;;;;;5075079;28;20303;-70
2022/05/09 11:13:18;;;;;;;;;;;24.70;81.00;;;;;;5065131;28;19924;-70
2022/05/09 11:15:49;;;;;;;;;;;24.90;78.90;;;;;;5056269;28;20235;-70
2022/05/09 11:18:18;;;;;;;;;;;25.20;77.80;;;;;;5075165;28;19912;-70
2022/05/09 11:20:52;;;;;;;;;;;25.30;74.90;;;;;;5068860;28;19917;-70
2022/05/09 11:23:43;;;;;;;;;;;25.30;73.30;;;;;;5066914;28;20007;-70
2022/05/09 11:26:27;;;;;;;;;;;25.00;75.20;;;;;;5070413;28;20266;-71
2022/05/09 11:28:56;;;;;;;;;;;25.20;79.50;;;;;;5071162;28;20283;-71
2022/05/09 11:31:28;;;;;;;;;;;25.30;78.10;;;;;;5071405;28;19924;-71
2022/05/09 11:33:59;;;;;;;;;;;25.30;78.30;;;;;;5074691;28;19924;-71
2022/05/09 11:36:28;;;;;;;;;;;25.20;76.60;;;;;;5071243;28;20045;-72
2022/05/09 11:39:02;;;;;;;;;;;25.00;75.20;;;;;;5065309;28;20268;-71
2022/05/09 11:41:31;;;;;;;;;;;25.40;74.60;;;;;;5064703;28;19919;-71
2022/05/09 11:44:07;;;;;;;;;;;25.40;73.60;;;;;;5069606;28;19927;-72
2022/05/09 11:46:32;;;;;;;;;;;25.50;78.50;;;;;;5064365;28;20197;-70
2022/05/09 11:49:08;;;;;;;;;;;25.60;78.40;;;;;;5069019;28;19916;-71
2022/05/09 11:51:42;;;;;;;;;;;25.70;75.20;;;;;;5062966;28;20223;-73
2022/05/09 11:54:11;;;;;;;;;;;25.60;73.60;;;;;;5063168;28;19920;-71
2022/05/09 11:56:38;;;;;;;;;;;25.50;77.20;;;;;;5062518;28;20000;-71
2022/05/09 11:59:04;;;;;;;;;;;25.20;74.40;;;;;;5065153;28;19919;-71
2022/05/09 12:02:08;;;;;;;;;;;25.30;73.10;;;;;;5062268;28;19913;-72
2022/05/09 12:04:41;;;;;;;;;;;25.30;75.50;;;;;;5013727;28;20447;-71
2022/05/09 12:07:27;;;;;;;;;;;25.40;74.50;;;;;;5013643;28;20288;-72
2022/05/09 12:10:18;;;;;;;;;;;25.50;73.30;;;;;;5011881;28;19956;-71
2022/05/09 12:12:43;;;;;;;;;;;25.30;74.20;;;;;;5058841;28;19924;-72
2022/05/09 12:15:15;;;;;;;;;;;25.50;72.40;;;;;;5072358;28;20214;-72
2022/05/09 12:17:41;;;;;;;;;;;25.50;70.40;;;;;;5069342;28;19912;-70
2022/05/09 12:20:08;;;;;;;;;;;25.60;69.60;;;;;;5064007;28;19920;-71
2022/05/09 12:22:39;;;;;;;;;;;25.70;73.30;;;;;;5065385;28;19916;-70
2022/05/09 12:25:13;;;;;;;;;;;25.80;71.70;;;;;;5065004;28;20239;-70
2022/05/09 12:27:41;;;;;;;;;;;25.80;72.10;;;;;;5058944;28;19973;-71
2022/05/09 12:30:11;;;;;;;;;;;25.90;73.30;;;;;;5072054;28;20295;-70
2022/05/09 12:32:37;;;;;;;;;;;26.30;71.80;;;;;;5064787;28;19920;-71
2022/05/09 12:35:07;;;;;;;;;;;26.30;71.00;;;;;;5055907;28;19916;-71
2022/05/09 12:37:42;;;;;;;;;;;26.40;70.40;;;;;;5073814;28;19927;-70
2022/05/09 12:40:17;;;;;;;;;;;26.50;71.30;;;;;;5058179;28;20353;-70
2022/05/09 12:42:48;;;;;;;;;;;26.80;68.50;;;;;;5061937;28;19917;-70
2022/05/09 12:45:14;;;;;;;;;;;26.30;72.30;;;;;;5055140;28;19917;-70
2022/05/09 12:47:41;;;;;;;;;;;26.10;72.70;;;;;;5055350;28;20227;-71
2022/05/09 12:50:07;;;;;;;;;;;26.10;74.50;;;;;;5058526;28;20280;-71
2022/05/09 12:52:35;;;;;;;;;;;25.90;69.20;;;;;;5073292;28;19920;-70
2022/05/09 12:57:45;;;;;;;;;;;26.40;70.00;;;;;;5062238;28;20215;-70
2022/05/09 13:00:11;;;;;;;;;;;26.50;69.30;;;;;;5058329;28;19913;-71
2022/05/09 13:02:37;;;;;;;;;;;26.40;72.40;;;;;;5061497;28;19917;-70
2022/05/09 13:05:04;;;;;;;;;;;26.40;72.70;;;;;;5070552;28;20341;-70
2022/05/09 13:07:30;;;;;;;;;;;26.40;71.60;;;;;;5058093;28;19916;-71
2022/05/09 13:09:55;;;;;;;;;;;26.40;71.70;;;;;;5070528;28;19966;-71
2022/05/09 13:12:23;;;;;;;;;;;26.10;68.50;;;;;;5075749;28;20218;-71
2022/05/09 13:14:56;;;;;;;;;;;26.20;71.40;;;;;;5077069;28;19963;-71
2022/05/09 13:17:36;;;;;;;;;;;26.40;72.10;;;;;;5075588;28;20535;-70
2022/05/09 13:20:03;;;;;;;;;;;26.40;71.60;;;;;;5072454;28;19958;-70
2022/05/09 13:22:34;;;;;;;;;;;26.30;69.70;;;;;;5071559;28;19936;-70
2022/05/09 13:25:05;;;;;;;;;;;26.20;71.40;;;;;;5073350;28;19916;-70
2022/05/09 13:27:30;;;;;;;;;;;26.30;70.60;;;;;;5070592;28;19912;-70
2022/05/09 13:29:56;;;;;;;;;;;25.90;70.50;;;;;;5067620;28;20007;-71
2022/05/09 13:32:23;;;;;;;;;;;25.90;70.80;;;;;;5069004;28;19923;-71
2022/05/09 13:34:48;;;;;;;;;;;26.00;71.90;;;;;;5073962;28;19913;-70
2022/05/09 13:37:26;;;;;;;;;;;25.90;69.40;;;;;;5076606;28;19909;-71
2022/05/09 13:39:51;;;;;;;;;;;25.80;67.90;;;;;;5075863;28;19912;-70
2022/05/09 13:42:23;;;;;;;;;;;26.00;71.20;;;;;;5074585;28;19961;-71
2022/05/09 13:44:49;;;;;;;;;;;25.90;70.50;;;;;;5075774;28;20307;-70
2022/05/09 13:47:17;;;;;;;;;;;26.20;69.30;;;;;;5076042;28;19909;-70
2022/05/09 13:49:44;;;;;;;;;;;26.30;67.70;;;;;;5073758;28;19916;-70
2022/05/09 13:52:18;;;;;;;;;;;26.10;67.60;;;;;;5076185;28;19936;-70
2022/05/09 13:54:49;;;;;;;;;;;26.10;68.10;;;;;;5074568;28;19977;-70
2022/05/09 13:57:22;;;;;;;;;;;25.90;66.10;;;;;;5066369;28;20380;-70
2022/05/09 13:59:50;;;;;;;;;;;25.90;67.70;;;;;;5071503;28;19921;-70
2022/05/09 14:02:16;;;;;;;;;;;25.50;69.50;;;;;;5075769;28;19920;-70
2022/05/09 14:04:44;;;;;;;;;;;25.60;72.00;;;;;;5076093;28;19912;-71
2022/05/09 14:09:59;;;;;;;;;;;25.90;71.00;;;;;;5059373;28;19936;-71
2022/05/09 14:12:26;;;;;;;;;;;26.20;71.20;;;;;;5074702;28;19920;-71
2022/05/09 14:15:04;;;;;;;;;;;26.30;67.20;;;;;;5073106;28;19959;-71
2022/05/09 14:17:32;;;;;;;;;;;26.10;70.00;;;;;;5073914;28;19912;-71
2022/05/09 14:19:59;;;;;;;;;;;26.30;69.10;;;;;;5075431;28;20045;-71
2022/05/09 14:22:27;;;;;;;;;;;26.30;70.10;;;;;;5075013;28;20033;-70
2022/05/09 14:30:33;;;;;;;;;;;25.90;71.80;;;;;;5074157;28;19939;-71
2022/05/09 14:32:59;;;;;;;;;;;25.80;72.70;;;;;;5064959;28;19973;-71
2022/05/09 14:35:42;;;;;;;;;;;25.80;71.90;;;;;;5065545;28;19913;-70
2022/05/09 14:38:28;;;;;;;;;;;25.90;70.00;;;;;;5074748;28;19919;-71
2022/05/09 14:41:05;;;;;;;;;;;25.80;73.20;;;;;;5088271;28;19928;-70
2022/05/09 14:43:31;;;;;;;;;;;25.80;70.70;;;;;;5069637;28;19912;-71
2022/05/09 14:46:04;;;;;;;;;;;25.70;71.20;;;;;;5073061;28;20031;-72
2022/05/09 14:48:32;;;;;;;;;;;25.50;71.80;;;;;;5071278;28;20114;-71
2022/05/09 14:50:59;;;;;;;;;;;25.30;75.20;;;;;;5074086;28;19916;-70
2022/05/09 14:53:33;;;;;;;;;;;25.40;74.20;;;;;;5073279;28;19917;-70
2022/05/09 14:59:03;;;;;;;;;;;25.20;74.90;;;;;;5073665;28;19922;-71